Limestone, TN (37681)

3:04 PM EST on January 30, 2015 (GMT -0500)
APRSWXNET Jonesborough TN US | Change Station
CLOSE
Current Station
Personal Weather Station
Location: Jonesborough, TN
Elevation: 1696 ft
Nearby Weather Stations

Elev 1696 ft 36.27 °N, 82.51 °W | Updated 31 minutes ago

Mostly Cloudy
Mostly Cloudy
35 °F
Feels Like 35 °F
N
0
Wind Variable Wind from WNW
Gusts 0.0 mph

Today
High -- | Low -- °F
--% Chance of Precip.
Yesterday
High -- | Low -- °F
Precip. -- in
7:33 AM 5:54 PM
Waxing Gibbous, 84% visible
Pressure 30.28 in
Visibility 10.0 miles
Clouds Mostly Cloudy 5000 ft
Windchill 35 °F
Dew Point 20 °F
Humidity 53%
Rainfall 0.04 in
Snow Depth Not available.
UV 1 out of 12
Pollen .40 out of 12
Air Quality Not available.
Flu Activity Not available.
METAR KTRI 301953Z 29015G19KT 10SM BKN050 04/M08 A3029 RMK AO2 SLP254 T00391078

More Conditions Fewer Conditions

Pressure 30.28 in
Visibility 10.0 miles
Clouds Mostly Cloudy 5000 ft
Windchill 35 °F
Dew Point 20 °F
Humidity 53%
Rainfall 0.04 in
Snow Depth Not available.
UV 1 out of 12
Pollen .40 out of 12
Air Quality Not available.
Flu Activity Not available.
METAR KTRI 301953Z 29015G19KT 10SM BKN050 04/M08 A3029 RMK AO2 SLP254 T00391078

More Conditions Fewer Conditions

10-Day Weather Forecast

Almanac

Astronomy

Jan. 30, 2015 Rise Set
Actual Time
Civil Twilight
Nautical Twilight
Astronomical Twilight
Moon
Length of Visible Light
Length of Day
Tomorrow will be .
, % of the Moon is Illuminated

Today's Extremes

State Highs State Lows

Community

WunderPhotos

Upload Photos

1,791,882 photos uploaded!

WunderBlogs® & News

Nearby

Air Quality

  Air Quality AQ Index Pollutant
Not available.

Snow Depth

Station Depth Elevation

Earthquake Activity

City Distance Mag. Time & Date
Minimum magnitude displayed is 2.5.

Coastal Water Temperatures

Place Temperature

Nearby Weather Stations